sensor_id;sensor_type;location;lat;lon;timestamp;temperature;humidity
20463;DHT22;10390;53.566;9.980;2022-10-16T00:00:17;23.70;1.00
20463;DHT22;10390;53.566;9.980;2022-10-16T00:02:42;23.60;1.00
20463;DHT22;10390;53.566;9.980;2022-10-16T00:05:08;23.70;1.00
20463;DHT22;10390;53.566;9.980;2022-10-16T00:07:34;23.60;1.00
20463;DHT22;10390;53.566;9.980;2022-10-16T00:09:59;23.70;1.00
20463;DHT22;10390;53.566;9.980;2022-10-16T00:12:25;23.70;1.00
20463;DHT22;10390;53.566;9.980;2022-10-16T00:14:51;23.60;1.00
20463;DHT22;10390;53.566;9.980;2022-10-16T00:17:17;23.60;1.00
20463;DHT22;10390;53.566;9.980;2022-10-16T00:19:42;23.60;1.00
20463;DHT22;10390;53.566;9.980;2022-10-16T00:22:08;23.60;1.00
20463;DHT22;10390;53.566;9.980;2022-10-16T00:24:33;23.60;1.00
20463;DHT22;10390;53.566;9.980;2022-10-16T00:26:59;23.60;1.00
20463;DHT22;10390;53.566;9.980;2022-10-16T00:29:25;23.60;1.00
20463;DHT22;10390;53.566;9.980;2022-10-16T00:31:50;23.60;1.00
20463;DHT22;10390;53.566;9.980;2022-10-16T00:34:16;23.60;1.00
20463;DHT22;10390;53.566;9.980;2022-10-16T00:36:41;23.60;1.00
20463;DHT22;10390;53.566;9.980;2022-10-16T00:39:07;23.60;1.00
20463;DHT22;10390;53.566;9.980;2022-10-16T00:41:33;23.60;1.00
20463;DHT22;10390;53.566;9.980;2022-10-16T00:44:01;23.60;1.00
20463;DHT22;10390;53.566;9.980;2022-10-16T00:46:40;23.60;1.00
20463;DHT22;10390;53.566;9.980;2022-10-16T00:49:14;23.60;1.00
20463;DHT22;10390;53.566;9.980;2022-10-16T00:51:45;23.60;1.00
20463;DHT22;10390;53.566;9.980;2022-10-16T00:54:15;23.60;1.00
20463;DHT22;10390;53.566;9.980;2022-10-16T00:56:43;23.60;1.00
20463;DHT22;10390;53.566;9.980;2022-10-16T00:59:18;23.60;1.00
20463;DHT22;10390;53.566;9.980;2022-10-16T01:01:44;23.60;1.00
20463;DHT22;10390;53.566;9.980;2022-10-16T01:04:10;23.60;1.00
20463;DHT22;10390;53.566;9.980;2022-10-16T01:09:16;23.60;1.00
20463;DHT22;10390;53.566;9.980;2022-10-16T01:15:14;23.60;1.00
20463;DHT22;10390;53.566;9.980;2022-10-16T01:17:45;23.60;1.00
20463;DHT22;10390;53.566;9.980;2022-10-16T01:20:24;23.60;1.00
20463;DHT22;10390;53.566;9.980;2022-10-16T01:31:11;23.60;1.00
20463;DHT22;10390;53.566;9.980;2022-10-16T01:33:46;23.60;1.00
20463;DHT22;10390;53.566;9.980;2022-10-16T01:36:21;23.60;1.00
20463;DHT22;10390;53.566;9.980;2022-10-16T01:38:51;23.60;1.00
20463;DHT22;10390;53.566;9.980;2022-10-16T01:41:28;23.60;1.00
20463;DHT22;10390;53.566;9.980;2022-10-16T01:44:01;23.60;1.00
20463;DHT22;10390;53.566;9.980;2022-10-16T01:46:28;23.60;1.00
20463;DHT22;10390;53.566;9.980;2022-10-16T01:48:56;23.60;1.00
20463;DHT22;10390;53.566;9.980;2022-10-16T01:51:23;23.60;1.00
20463;DHT22;10390;53.566;9.980;2022-10-16T01:53:53;23.60;1.00
20463;DHT22;10390;53.566;9.980;2022-10-16T01:56:24;23.60;1.00
20463;DHT22;10390;53.566;9.980;2022-10-16T01:58:56;23.60;1.00
20463;DHT22;10390;53.566;9.980;2022-10-16T02:01:27;23.60;1.00
20463;DHT22;10390;53.566;9.980;2022-10-16T02:03:57;23.60;1.00
20463;DHT22;10390;53.566;9.980;2022-10-16T02:06:26;23.60;1.00
20463;DHT22;10390;53.566;9.980;2022-10-16T02:08:53;23.60;1.00
20463;DHT22;10390;53.566;9.980;2022-10-16T02:11:30;23.60;1.00
20463;DHT22;10390;53.566;9.980;2022-10-16T02:14:02;23.60;1.00
20463;DHT22;10390;53.566;9.980;2022-10-16T02:16:44;23.60;1.00
20463;DHT22;10390;53.566;9.980;2022-10-16T02:19:15;23.60;1.00
20463;DHT22;10390;53.566;9.980;2022-10-16T02:21:49;23.60;1.00
20463;DHT22;10390;53.566;9.980;2022-10-16T02:24:53;23.60;1.00
20463;DHT22;10390;53.566;9.980;2022-10-16T02:27:46;23.60;1.00
20463;DHT22;10390;53.566;9.980;2022-10-16T02:32:55;23.60;1.00
20463;DHT22;10390;53.566;9.980;2022-10-16T02:35:23;23.60;1.00
20463;DHT22;10390;53.566;9.980;2022-10-16T02:37:50;23.60;1.00
20463;DHT22;10390;53.566;9.980;2022-10-16T02:40:17;23.60;1.00
20463;DHT22;10390;53.566;9.980;2022-10-16T02:42:43;23.60;1.00
20463;DHT22;10390;53.566;9.980;2022-10-16T02:45:10;23.60;1.00
20463;DHT22;10390;53.566;9.980;2022-10-16T02:47:36;23.60;1.00
20463;DHT22;10390;53.566;9.980;2022-10-16T02:50:06;23.60;1.00
20463;DHT22;10390;53.566;9.980;2022-10-16T02:52:32;23.60;1.00
20463;DHT22;10390;53.566;9.980;2022-10-16T02:54:58;23.60;1.00
20463;DHT22;10390;53.566;9.980;2022-10-16T02:57:25;23.60;1.00
20463;DHT22;10390;53.566;9.980;2022-10-16T02:59:52;23.60;1.00
20463;DHT22;10390;53.566;9.980;2022-10-16T03:02:18;23.60;1.00
20463;DHT22;10390;53.566;9.980;2022-10-16T03:04:44;23.60;1.00
20463;DHT22;10390;53.566;9.980;2022-10-16T03:07:09;23.60;1.00
20463;DHT22;10390;53.566;9.980;2022-10-16T03:09:35;23.60;1.00
20463;DHT22;10390;53.566;9.980;2022-10-16T03:12:01;23.60;1.00
20463;DHT22;10390;53.566;9.980;2022-10-16T03:14:26;23.60;1.00
20463;DHT22;10390;53.566;9.980;2022-10-16T03:16:56;23.60;1.00
20463;DHT22;10390;53.566;9.980;2022-10-16T03:19:22;23.60;1.00
20463;DHT22;10390;53.566;9.980;2022-10-16T03:21:48;23.60;1.00
20463;DHT22;10390;53.566;9.980;2022-10-16T03:24:13;23.60;1.00
20463;DHT22;10390;53.566;9.980;2022-10-16T03:26:39;23.60;1.00
20463;DHT22;10390;53.566;9.980;2022-10-16T03:29:06;23.60;1.00
20463;DHT22;10390;53.566;9.980;2022-10-16T03:31:32;23.60;1.00
20463;DHT22;10390;53.566;9.980;2022-10-16T03:33:58;23.60;1.00
20463;DHT22;10390;53.566;9.980;2022-10-16T03:36:23;23.60;1.00
20463;DHT22;10390;53.566;9.980;2022-10-16T03:38:49;23.70;1.00
20463;DHT22;10390;53.566;9.980;2022-10-16T03:41:16;23.60;1.00
20463;DHT22;10390;53.566;9.980;2022-10-16T03:43:43;23.60;1.00
20463;DHT22;10390;53.566;9.980;2022-10-16T03:46:08;23.60;1.00
20463;DHT22;10390;53.566;9.980;2022-10-16T03:48:34;23.70;1.00
20463;DHT22;10390;53.566;9.980;2022-10-16T03:50:59;23.70;1.00
20463;DHT22;10390;53.566;9.980;2022-10-16T03:53:25;23.60;1.00
20463;DHT22;10390;53.566;9.980;2022-10-16T03:55:51;23.60;1.00
20463;DHT22;10390;53.566;9.980;2022-10-16T03:58:17;23.60;1.00
20463;DHT22;10390;53.566;9.980;2022-10-16T04:00:44;23.70;1.00
20463;DHT22;10390;53.566;9.980;2022-10-16T04:03:10;23.70;1.00
20463;DHT22;10390;53.566;9.980;2022-10-16T04:05:36;23.70;1.00
20463;DHT22;10390;53.566;9.980;2022-10-16T04:08:02;23.70;1.00
20463;DHT22;10390;53.566;9.980;2022-10-16T04:10:28;23.60;1.00
20463;DHT22;10390;53.566;9.980;2022-10-16T04:12:54;23.60;1.00
20463;DHT22;10390;53.566;9.980;2022-10-16T04:15:21;23.60;1.00
20463;DHT22;10390;53.566;9.980;2022-10-16T04:17:47;23.60;1.00
20463;DHT22;10390;53.566;9.980;2022-10-16T04:20:13;23.60;1.00
20463;DHT22;10390;53.566;9.980;2022-10-16T04:22:39;23.60;1.00
20463;DHT22;10390;53.566;9.980;2022-10-16T04:25:05;23.60;1.00
20463;DHT22;10390;53.566;9.980;2022-10-16T04:27:30;23.60;1.00
20463;DHT22;10390;53.566;9.980;2022-10-16T04:29:57;23.60;1.00
20463;DHT22;10390;53.566;9.980;2022-10-16T04:32:23;23.60;1.00
20463;DHT22;10390;53.566;9.980;2022-10-16T04:34:49;23.60;1.00
20463;DHT22;10390;53.566;9.980;2022-10-16T04:37:14;23.60;1.00
20463;DHT22;10390;53.566;9.980;2022-10-16T04:39:40;23.60;1.00
20463;DHT22;10390;53.566;9.980;2022-10-16T04:42:13;23.60;1.00
20463;DHT22;10390;53.566;9.980;2022-10-16T04:44:38;23.60;1.00
20463;DHT22;10390;53.566;9.980;2022-10-16T04:47:04;23.60;1.00
20463;DHT22;10390;53.566;9.980;2022-10-16T04:49:30;23.60;1.00
20463;DHT22;10390;53.566;9.980;2022-10-16T04:51:55;23.60;1.00
20463;DHT22;10390;53.566;9.980;2022-10-16T04:54:21;23.60;1.00
20463;DHT22;10390;53.566;9.980;2022-10-16T04:56:46;23.60;1.00
20463;DHT22;10390;53.566;9.980;2022-10-16T04:59:17;23.60;1.00
20463;DHT22;10390;53.566;9.980;2022-10-16T05:01:43;23.60;1.00
20463;DHT22;10390;53.566;9.980;2022-10-16T05:04:09;23.60;1.00
20463;DHT22;10390;53.566;9.980;2022-10-16T05:06:35;23.60;1.00
20463;DHT22;10390;53.566;9.980;2022-10-16T05:09:01;23.60;1.00
20463;DHT22;10390;53.566;9.980;2022-10-16T05:11:26;23.60;1.00
20463;DHT22;10390;53.566;9.980;2022-10-16T05:13:52;23.60;1.00
20463;DHT22;10390;53.566;9.980;2022-10-16T05:16:21;23.60;1.00
20463;DHT22;10390;53.566;9.980;2022-10-16T05:18:46;23.60;1.00
20463;DHT22;10390;53.566;9.980;2022-10-16T05:21:12;23.60;1.00
20463;DHT22;10390;53.566;9.980;2022-10-16T05:23:38;23.60;1.00
20463;DHT22;10390;53.566;9.980;2022-10-16T05:26:03;23.60;1.00
20463;DHT22;10390;53.566;9.980;2022-10-16T05:28:31;23.60;1.00
20463;DHT22;10390;53.566;9.980;2022-10-16T05:30:57;23.60;1.00
20463;DHT22;10390;53.566;9.980;2022-10-16T05:33:25;23.60;1.00
20463;DHT22;10390;53.566;9.980;2022-10-16T05:35:51;23.60;1.00
20463;DHT22;10390;53.566;9.980;2022-10-16T05:38:18;23.60;1.00
20463;DHT22;10390;53.566;9.980;2022-10-16T05:40:44;23.60;1.00
20463;DHT22;10390;53.566;9.980;2022-10-16T05:43:15;23.60;1.00
20463;DHT22;10390;53.566;9.980;2022-10-16T05:45:41;23.60;1.00
20463;DHT22;10390;53.566;9.980;2022-10-16T05:48:06;23.60;1.00
20463;DHT22;10390;53.566;9.980;2022-10-16T05:50:32;23.60;1.00
20463;DHT22;10390;53.566;9.980;2022-10-16T05:52:57;23.60;1.00
20463;DHT22;10390;53.566;9.980;2022-10-16T05:55:26;23.60;1.00
20463;DHT22;10390;53.566;9.980;2022-10-16T05:57:54;23.60;1.00
20463;DHT22;10390;53.566;9.980;2022-10-16T06:00:20;23.60;1.00
20463;DHT22;10390;53.566;9.980;2022-10-16T06:02:46;23.60;1.00
20463;DHT22;10390;53.566;9.980;2022-10-16T06:05:11;23.60;1.00
20463;DHT22;10390;53.566;9.980;2022-10-16T06:07:37;23.60;1.00
20463;DHT22;10390;53.566;9.980;2022-10-16T06:10:04;23.50;1.00
20463;DHT22;10390;53.566;9.980;2022-10-16T06:12:30;23.60;1.00
20463;DHT22;10390;53.566;9.980;2022-10-16T06:14:55;23.60;1.00
20463;DHT22;10390;53.566;9.980;2022-10-16T06:17:24;23.50;1.00
20463;DHT22;10390;53.566;9.980;2022-10-16T06:19:49;23.60;1.00
20463;DHT22;10390;53.566;9.980;2022-10-16T06:22:15;23.60;1.00
20463;DHT22;10390;53.566;9.980;2022-10-16T06:24:41;23.60;1.00
20463;DHT22;10390;53.566;9.980;2022-10-16T06:27:06;23.60;1.00
20463;DHT22;10390;53.566;9.980;2022-10-16T06:29:32;23.60;1.00
20463;DHT22;10390;53.566;9.980;2022-10-16T06:31:58;23.60;1.00
20463;DHT22;10390;53.566;9.980;2022-10-16T06:34:23;23.60;1.00
20463;DHT22;10390;53.566;9.980;2022-10-16T06:36:49;23.60;1.00
20463;DHT22;10390;53.566;9.980;2022-10-16T06:39:16;23.60;1.00
20463;DHT22;10390;53.566;9.980;2022-10-16T06:41:42;23.60;1.00
20463;DHT22;10390;53.566;9.980;2022-10-16T06:44:08;23.60;1.00
20463;DHT22;10390;53.566;9.980;2022-10-16T06:46:35;23.60;1.00
20463;DHT22;10390;53.566;9.980;2022-10-16T06:49:00;23.60;1.00
20463;DHT22;10390;53.566;9.980;2022-10-16T06:51:26;23.60;1.00
20463;DHT22;10390;53.566;9.980;2022-10-16T06:53:53;23.60;1.00
20463;DHT22;10390;53.566;9.980;2022-10-16T06:56:21;23.60;1.00
20463;DHT22;10390;53.566;9.980;2022-10-16T06:58:48;23.60;1.00
20463;DHT22;10390;53.566;9.980;2022-10-16T07:01:15;23.60;1.00
20463;DHT22;10390;53.566;9.980;2022-10-16T07:03:42;23.50;1.00
20463;DHT22;10390;53.566;9.980;2022-10-16T07:06:11;23.50;1.00
20463;DHT22;10390;53.566;9.980;2022-10-16T07:08:40;23.60;1.00
20463;DHT22;10390;53.566;9.980;2022-10-16T07:11:10;23.50;1.00
20463;DHT22;10390;53.566;9.980;2022-10-16T07:13:37;23.50;1.00
20463;DHT22;10390;53.566;9.980;2022-10-16T07:16:15;23.50;1.00
20463;DHT22;10390;53.566;9.980;2022-10-16T07:18:42;23.50;1.00
20463;DHT22;10390;53.566;9.980;2022-10-16T07:21:13;23.50;1.00
20463;DHT22;10390;53.566;9.980;2022-10-16T07:23:40;23.60;1.00
20463;DHT22;10390;53.566;9.980;2022-10-16T07:26:07;23.50;1.00
20463;DHT22;10390;53.566;9.980;2022-10-16T07:28:33;23.60;1.00
20463;DHT22;10390;53.566;9.980;2022-10-16T07:31:07;23.60;1.00
20463;DHT22;10390;53.566;9.980;2022-10-16T07:33:34;23.50;1.00
20463;DHT22;10390;53.566;9.980;2022-10-16T07:36:00;23.60;1.00
20463;DHT22;10390;53.566;9.980;2022-10-16T07:38:35;23.50;1.00
20463;DHT22;10390;53.566;9.980;2022-10-16T07:41:24;23.60;1.00
20463;DHT22;10390;53.566;9.980;2022-10-16T07:43:52;23.50;1.00
20463;DHT22;10390;53.566;9.980;2022-10-16T07:46:19;23.50;1.00
20463;DHT22;10390;53.566;9.980;2022-10-16T07:48:46;23.50;1.00
20463;DHT22;10390;53.566;9.980;2022-10-16T07:51:15;23.50;1.00
20463;DHT22;10390;53.566;9.980;2022-10-16T07:53:44;23.50;1.00
20463;DHT22;10390;53.566;9.980;2022-10-16T07:56:11;23.50;1.00
20463;DHT22;10390;53.566;9.980;2022-10-16T07:58:37;23.50;1.00
20463;DHT22;10390;53.566;9.980;2022-10-16T08:01:09;23.50;1.00
20463;DHT22;10390;53.566;9.980;2022-10-16T08:03:36;23.50;1.00
20463;DHT22;10390;53.566;9.980;2022-10-16T08:06:02;23.50;1.00
20463;DHT22;10390;53.566;9.980;2022-10-16T08:08:29;23.40;1.00
20463;DHT22;10390;53.566;9.980;2022-10-16T08:10:55;23.50;1.00
20463;DHT22;10390;53.566;9.980;2022-10-16T08:13:21;23.50;1.00
20463;DHT22;10390;53.566;9.980;2022-10-16T08:15:47;23.50;1.00
20463;DHT22;10390;53.566;9.980;2022-10-16T08:21:35;23.50;1.00
20463;DHT22;10390;53.566;9.980;2022-10-16T08:24:01;23.50;1.00
20463;DHT22;10390;53.566;9.980;2022-10-16T08:26:28;23.50;1.00
20463;DHT22;10390;53.566;9.980;2022-10-16T08:28:57;23.50;1.00
20463;DHT22;10390;53.566;9.980;2022-10-16T08:31:23;23.50;1.00
20463;DHT22;10390;53.566;9.980;2022-10-16T08:33:50;23.50;1.00
20463;DHT22;10390;53.566;9.980;2022-10-16T08:36:20;23.50;1.00
20463;DHT22;10390;53.566;9.980;2022-10-16T08:38:50;23.50;1.00
20463;DHT22;10390;53.566;9.980;2022-10-16T08:44:22;23.50;1.00
20463;DHT22;10390;53.566;9.980;2022-10-16T08:49:24;23.50;1.00
20463;DHT22;10390;53.566;9.980;2022-10-16T08:51:50;23.50;1.00
20463;DHT22;10390;53.566;9.980;2022-10-16T08:54:28;23.50;1.00
20463;DHT22;10390;53.566;9.980;2022-10-16T08:56:57;23.50;1.00
20463;DHT22;10390;53.566;9.980;2022-10-16T08:59:29;23.50;1.00
20463;DHT22;10390;53.566;9.980;2022-10-16T09:01:58;23.50;1.00
20463;DHT22;10390;53.566;9.980;2022-10-16T09:13:53;23.50;1.00
20463;DHT22;10390;53.566;9.980;2022-10-16T09:16:27;23.40;1.00
20463;DHT22;10390;53.566;9.980;2022-10-16T09:21:46;23.50;1.00
20463;DHT22;10390;53.566;9.980;2022-10-16T09:24:16;23.50;1.00
20463;DHT22;10390;53.566;9.980;2022-10-16T09:26:43;23.40;1.00
20463;DHT22;10390;53.566;9.980;2022-10-16T09:29:12;23.40;1.00
20463;DHT22;10390;53.566;9.980;2022-10-16T09:31:38;23.50;1.00
20463;DHT22;10390;53.566;9.980;2022-10-16T09:34:05;23.50;1.00
20463;DHT22;10390;53.566;9.980;2022-10-16T09:36:41;23.40;1.00
20463;DHT22;10390;53.566;9.980;2022-10-16T09:39:10;23.50;1.00
20463;DHT22;10390;53.566;9.980;2022-10-16T09:41:41;23.50;1.00
20463;DHT22;10390;53.566;9.980;2022-10-16T09:44:26;23.50;1.00
20463;DHT22;10390;53.566;9.980;2022-10-16T09:47:16;23.50;1.00
20463;DHT22;10390;53.566;9.980;2022-10-16T09:50:02;23.50;1.00
20463;DHT22;10390;53.566;9.980;2022-10-16T09:52:30;23.50;1.00
20463;DHT22;10390;53.566;9.980;2022-10-16T09:55:01;23.50;1.00
20463;DHT22;10390;53.566;9.980;2022-10-16T09:57:28;23.50;1.00
20463;DHT22;10390;53.566;9.980;2022-10-16T09:59:58;23.50;1.00
20463;DHT22;10390;53.566;9.980;2022-10-16T10:02:36;23.50;1.00
20463;DHT22;10390;53.566;9.980;2022-10-16T10:05:24;23.60;1.00
20463;DHT22;10390;53.566;9.980;2022-10-16T10:08:01;23.60;1.00
20463;DHT22;10390;53.566;9.980;2022-10-16T10:10:33;23.50;1.00
20463;DHT22;10390;53.566;9.980;2022-10-16T10:13:00;23.60;1.00
20463;DHT22;10390;53.566;9.980;2022-10-16T10:15:33;23.60;1.00
20463;DHT22;10390;53.566;9.980;2022-10-16T10:18:00;23.60;1.00
20463;DHT22;10390;53.566;9.980;2022-10-16T10:20:34;23.60;1.00
20463;DHT22;10390;53.566;9.980;2022-10-16T10:23:01;23.50;1.00
20463;DHT22;10390;53.566;9.980;2022-10-16T10:33:39;23.60;1.00
20463;DHT22;10390;53.566;9.980;2022-10-16T10:36:27;23.60;1.00
20463;DHT22;10390;53.566;9.980;2022-10-16T10:44:11;23.60;1.00
20463;DHT22;10390;53.566;9.980;2022-10-16T10:46:54;23.60;1.00
20463;DHT22;10390;53.566;9.980;2022-10-16T10:49:31;23.60;1.00
20463;DHT22;10390;53.566;9.980;2022-10-16T10:52:42;23.60;1.00
20463;DHT22;10390;53.566;9.980;2022-10-16T11:01:15;23.60;1.00
20463;DHT22;10390;53.566;9.980;2022-10-16T11:04:19;23.60;1.00
20463;DHT22;10390;53.566;9.980;2022-10-16T11:06:55;23.60;1.00
20463;DHT22;10390;53.566;9.980;2022-10-16T11:09:38;23.60;1.00
20463;DHT22;10390;53.566;9.980;2022-10-16T11:14:35;23.60;1.00
20463;DHT22;10390;53.566;9.980;2022-10-16T11:17:13;23.60;1.00
20463;DHT22;10390;53.566;9.980;2022-10-16T11:19:56;23.60;1.00
20463;DHT22;10390;53.566;9.980;2022-10-16T11:22:48;23.60;1.00
20463;DHT22;10390;53.566;9.980;2022-10-16T11:25:28;23.60;1.00
20463;DHT22;10390;53.566;9.980;2022-10-16T11:28:02;23.60;1.00
20463;DHT22;10390;53.566;9.980;2022-10-16T11:33:27;23.60;1.00
20463;DHT22;10390;53.566;9.980;2022-10-16T11:41:42;23.60;1.00
20463;DHT22;10390;53.566;9.980;2022-10-16T11:50:35;23.60;1.00
20463;DHT22;10390;53.566;9.980;2022-10-16T11:55:50;23.60;1.00
20463;DHT22;10390;53.566;9.980;2022-10-16T11:58:41;23.60;1.00
20463;DHT22;10390;53.566;9.980;2022-10-16T12:08:43;23.60;1.00
20463;DHT22;10390;53.566;9.980;2022-10-16T12:16:39;23.60;1.00
20463;DHT22;10390;53.566;9.980;2022-10-16T12:19:17;23.60;1.00
20463;DHT22;10390;53.566;9.980;2022-10-16T12:21:44;23.60;1.00
20463;DHT22;10390;53.566;9.980;2022-10-16T12:24:34;23.60;1.00
20463;DHT22;10390;53.566;9.980;2022-10-16T12:27:00;23.60;1.00
20463;DHT22;10390;53.566;9.980;2022-10-16T12:29:39;23.60;1.00
20463;DHT22;10390;53.566;9.980;2022-10-16T12:34:53;23.70;1.00
20463;DHT22;10390;53.566;9.980;2022-10-16T12:37:20;23.60;1.00
20463;DHT22;10390;53.566;9.980;2022-10-16T12:39:48;23.60;1.00
20463;DHT22;10390;53.566;9.980;2022-10-16T12:44:52;23.60;1.00
20463;DHT22;10390;53.566;9.980;2022-10-16T12:49:58;23.70;1.00
20463;DHT22;10390;53.566;9.980;2022-10-16T12:52:44;23.60;1.00
20463;DHT22;10390;53.566;9.980;2022-10-16T12:55:17;23.70;1.00
20463;DHT22;10390;53.566;9.980;2022-10-16T13:11:27;23.60;1.00
20463;DHT22;10390;53.566;9.980;2022-10-16T13:17:01;23.60;1.00
20463;DHT22;10390;53.566;9.980;2022-10-16T13:25:22;23.60;1.00
20463;DHT22;10390;53.566;9.980;2022-10-16T13:30:26;23.70;1.00
20463;DHT22;10390;53.566;9.980;2022-10-16T13:35:56;23.70;1.00
20463;DHT22;10390;53.566;9.980;2022-10-16T13:38:26;23.60;1.00
20463;DHT22;10390;53.566;9.980;2022-10-16T13:41:12;23.60;1.00
20463;DHT22;10390;53.566;9.980;2022-10-16T13:43:48;23.70;1.00
20463;DHT22;10390;53.566;9.980;2022-10-16T13:46:20;23.70;1.00
20463;DHT22;10390;53.566;9.980;2022-10-16T13:49:13;23.60;1.00
20463;DHT22;10390;53.566;9.980;2022-10-16T13:51:39;23.70;1.00
20463;DHT22;10390;53.566;9.980;2022-10-16T13:54:05;23.70;1.00
20463;DHT22;10390;53.566;9.980;2022-10-16T13:56:32;23.70;1.00
20463;DHT22;10390;53.566;9.980;2022-10-16T14:02:27;23.70;1.00
20463;DHT22;10390;53.566;9.980;2022-10-16T14:04:55;23.70;1.00
20463;DHT22;10390;53.566;9.980;2022-10-16T14:07:32;23.70;1.00
20463;DHT22;10390;53.566;9.980;2022-10-16T14:10:21;23.70;1.00
20463;DHT22;10390;53.566;9.980;2022-10-16T14:12:57;23.70;1.00
20463;DHT22;10390;53.566;9.980;2022-10-16T14:15:23;23.70;1.00
20463;DHT22;10390;53.566;9.980;2022-10-16T14:17:51;23.70;1.00
20463;DHT22;10390;53.566;9.980;2022-10-16T14:20:17;23.70;1.00
20463;DHT22;10390;53.566;9.980;2022-10-16T14:22:43;23.70;1.00
20463;DHT22;10390;53.566;9.980;2022-10-16T14:25:20;23.80;1.00
20463;DHT22;10390;53.566;9.980;2022-10-16T14:28:16;23.70;1.00
20463;DHT22;10390;53.566;9.980;2022-10-16T14:30:59;23.70;1.00
20463;DHT22;10390;53.566;9.980;2022-10-16T14:36:21;23.70;1.00
20463;DHT22;10390;53.566;9.980;2022-10-16T14:39:06;23.70;1.00
20463;DHT22;10390;53.566;9.980;2022-10-16T14:41:48;23.70;1.00
20463;DHT22;10390;53.566;9.980;2022-10-16T14:44:14;23.70;1.00
20463;DHT22;10390;53.566;9.980;2022-10-16T14:46:43;23.70;1.00
20463;DHT22;10390;53.566;9.980;2022-10-16T14:51:36;23.70;1.00
20463;DHT22;10390;53.566;9.980;2022-10-16T14:54:02;23.70;1.00
20463;DHT22;10390;53.566;9.980;2022-10-16T14:56:34;23.70;1.00
20463;DHT22;10390;53.566;9.980;2022-10-16T14:59:02;23.70;1.00
20463;DHT22;10390;53.566;9.980;2022-10-16T15:01:28;23.70;1.00
20463;DHT22;10390;53.566;9.980;2022-10-16T15:03:53;23.80;1.00
20463;DHT22;10390;53.566;9.980;2022-10-16T15:06:20;23.80;1.00
20463;DHT22;10390;53.566;9.980;2022-10-16T15:08:47;23.80;1.00
20463;DHT22;10390;53.566;9.980;2022-10-16T15:11:16;23.80;1.00
20463;DHT22;10390;53.566;9.980;2022-10-16T15:13:42;23.80;1.00
20463;DHT22;10390;53.566;9.980;2022-10-16T15:16:11;23.80;1.00
20463;DHT22;10390;53.566;9.980;2022-10-16T15:18:37;23.80;1.00
20463;DHT22;10390;53.566;9.980;2022-10-16T15:21:03;23.80;1.00
20463;DHT22;10390;53.566;9.980;2022-10-16T15:23:29;23.80;1.00
20463;DHT22;10390;53.566;9.980;2022-10-16T15:25:55;23.80;1.00
20463;DHT22;10390;53.566;9.980;2022-10-16T15:28:23;23.80;1.00
20463;DHT22;10390;53.566;9.980;2022-10-16T15:30:51;23.80;1.00
20463;DHT22;10390;53.566;9.980;2022-10-16T15:33:20;23.80;1.00
20463;DHT22;10390;53.566;9.980;2022-10-16T15:35:47;23.80;1.00
20463;DHT22;10390;53.566;9.980;2022-10-16T15:38:14;23.80;1.00
20463;DHT22;10390;53.566;9.980;2022-10-16T15:40:40;23.90;1.00
20463;DHT22;10390;53.566;9.980;2022-10-16T15:43:07;23.90;1.00
20463;DHT22;10390;53.566;9.980;2022-10-16T15:45:33;23.80;1.00
20463;DHT22;10390;53.566;9.980;2022-10-16T15:47:58;23.90;1.00
20463;DHT22;10390;53.566;9.980;2022-10-16T15:50:24;23.90;1.00
20463;DHT22;10390;53.566;9.980;2022-10-16T15:52:51;23.90;1.00
20463;DHT22;10390;53.566;9.980;2022-10-16T15:55:17;23.80;1.00
20463;DHT22;10390;53.566;9.980;2022-10-16T15:57:44;23.90;1.00
20463;DHT22;10390;53.566;9.980;2022-10-16T16:00:15;23.80;1.00
20463;DHT22;10390;53.566;9.980;2022-10-16T16:02:41;23.90;1.00
20463;DHT22;10390;53.566;9.980;2022-10-16T16:05:08;23.90;1.00
20463;DHT22;10390;53.566;9.980;2022-10-16T16:07:35;23.90;1.00
20463;DHT22;10390;53.566;9.980;2022-10-16T16:10:01;23.90;1.00
20463;DHT22;10390;53.566;9.980;2022-10-16T16:12:27;23.90;1.00
20463;DHT22;10390;53.566;9.980;2022-10-16T16:14:52;23.90;1.00
20463;DHT22;10390;53.566;9.980;2022-10-16T16:17:18;23.90;1.00
20463;DHT22;10390;53.566;9.980;2022-10-16T16:19:45;23.90;1.00
20463;DHT22;10390;53.566;9.980;2022-10-16T16:22:14;24.00;1.00
20463;DHT22;10390;53.566;9.980;2022-10-16T16:24:41;23.90;1.00
20463;DHT22;10390;53.566;9.980;2022-10-16T16:27:07;23.90;1.00
20463;DHT22;10390;53.566;9.980;2022-10-16T16:29:33;24.00;1.00
20463;DHT22;10390;53.566;9.980;2022-10-16T16:31:59;23.90;1.00
20463;DHT22;10390;53.566;9.980;2022-10-16T16:34:27;24.00;1.00
20463;DHT22;10390;53.566;9.980;2022-10-16T16:36:54;24.00;1.00
20463;DHT22;10390;53.566;9.980;2022-10-16T16:39:20;24.00;1.00
20463;DHT22;10390;53.566;9.980;2022-10-16T16:41:46;24.00;1.00
20463;DHT22;10390;53.566;9.980;2022-10-16T16:44:12;24.00;1.00
20463;DHT22;10390;53.566;9.980;2022-10-16T16:46:38;24.00;1.00
20463;DHT22;10390;53.566;9.980;2022-10-16T16:49:05;24.00;1.00
20463;DHT22;10390;53.566;9.980;2022-10-16T16:51:31;24.00;1.00
20463;DHT22;10390;53.566;9.980;2022-10-16T16:53:57;24.00;1.00
20463;DHT22;10390;53.566;9.980;2022-10-16T16:56:23;24.00;1.00
20463;DHT22;10390;53.566;9.980;2022-10-16T16:58:50;24.00;1.00
20463;DHT22;10390;53.566;9.980;2022-10-16T17:01:17;24.00;1.00
20463;DHT22;10390;53.566;9.980;2022-10-16T17:03:47;24.00;1.00
20463;DHT22;10390;53.566;9.980;2022-10-16T17:06:15;24.00;1.00
20463;DHT22;10390;53.566;9.980;2022-10-16T17:08:41;24.00;1.00
20463;DHT22;10390;53.566;9.980;2022-10-16T17:11:16;24.00;1.00
20463;DHT22;10390;53.566;9.980;2022-10-16T17:13:42;24.00;1.00
20463;DHT22;10390;53.566;9.980;2022-10-16T17:16:08;24.00;1.00
20463;DHT22;10390;53.566;9.980;2022-10-16T17:18:34;24.00;1.00
20463;DHT22;10390;53.566;9.980;2022-10-16T17:21:05;24.00;1.00
20463;DHT22;10390;53.566;9.980;2022-10-16T17:23:31;24.10;1.00
20463;DHT22;10390;53.566;9.980;2022-10-16T17:26:02;24.10;1.00
20463;DHT22;10390;53.566;9.980;2022-10-16T17:28:27;24.00;1.00
20463;DHT22;10390;53.566;9.980;2022-10-16T17:30:53;24.10;1.00
20463;DHT22;10390;53.566;9.980;2022-10-16T17:33:18;24.00;1.00
20463;DHT22;10390;53.566;9.980;2022-10-16T17:35:46;24.00;1.00
20463;DHT22;10390;53.566;9.980;2022-10-16T17:38:13;24.10;1.00
20463;DHT22;10390;53.566;9.980;2022-10-16T17:40:39;24.10;1.00
20463;DHT22;10390;53.566;9.980;2022-10-16T17:43:05;24.10;1.00
20463;DHT22;10390;53.566;9.980;2022-10-16T17:45:31;24.10;1.00
20463;DHT22;10390;53.566;9.980;2022-10-16T17:48:00;24.10;1.00
20463;DHT22;10390;53.566;9.980;2022-10-16T17:50:26;24.10;1.00
20463;DHT22;10390;53.566;9.980;2022-10-16T17:52:52;24.10;1.00
20463;DHT22;10390;53.566;9.980;2022-10-16T17:55:17;24.10;1.00
20463;DHT22;10390;53.566;9.980;2022-10-16T17:57:44;24.10;1.00
20463;DHT22;10390;53.566;9.980;2022-10-16T18:00:10;24.10;1.00
20463;DHT22;10390;53.566;9.980;2022-10-16T18:02:36;24.10;1.00
20463;DHT22;10390;53.566;9.980;2022-10-16T18:05:01;24.10;1.00
20463;DHT22;10390;53.566;9.980;2022-10-16T18:07:30;24.20;1.00
20463;DHT22;10390;53.566;9.980;2022-10-16T18:09:56;24.10;1.00
20463;DHT22;10390;53.566;9.980;2022-10-16T18:12:22;24.20;1.00